createdAt,value
2018-12-20T00:01:53.259Z,27.97
2018-12-20T00:04:20.068Z,28.37
2018-12-20T00:06:46.798Z,26.57
2018-12-20T00:09:13.635Z,25.43
2018-12-20T00:11:40.412Z,23.87
2018-12-20T00:14:06.816Z,25.10
2018-12-20T00:16:33.402Z,24.57
2018-12-20T00:19:00.180Z,23.77
2018-12-20T00:21:26.739Z,23.93
2018-12-20T00:23:53.108Z,24.40
2018-12-20T00:26:19.591Z,24.33
2018-12-20T00:28:46.087Z,22.63
2018-12-20T00:31:13.649Z,23.57
2018-12-20T00:33:40.309Z,21.87
2018-12-20T00:36:07.050Z,22.80
2018-12-20T00:38:33.684Z,21.87
2018-12-20T00:41:00.661Z,22.73
2018-12-20T00:43:27.421Z,22.63
2018-12-20T00:45:53.920Z,21.23
2018-12-20T00:48:20.771Z,23.27
2018-12-20T00:50:47.264Z,22.50
2018-12-20T00:53:14.219Z,21.40
2018-12-20T00:55:41.012Z,22.37
2018-12-20T00:58:07.746Z,21.90
2018-12-20T01:00:34.562Z,22.07
2018-12-20T01:03:00.979Z,20.70
2018-12-20T01:05:27.994Z,22.07
2018-12-20T01:07:54.647Z,22.53
2018-12-20T01:10:21.344Z,21.97
2018-12-20T01:12:48.126Z,22.33
2018-12-20T01:15:14.589Z,22.60
2018-12-20T01:17:41.313Z,22.00
2018-12-20T01:20:08.048Z,22.40
2018-12-20T01:22:34.834Z,22.00
2018-12-20T01:25:01.750Z,22.87
2018-12-20T01:27:28.225Z,21.37
2018-12-20T01:29:54.627Z,21.90
2018-12-20T01:32:21.976Z,21.67
2018-12-20T01:34:48.802Z,23.53
2018-12-20T01:37:15.588Z,21.13
2018-12-20T01:39:42.312Z,22.37
2018-12-20T01:42:09.167Z,22.00
2018-12-20T01:44:35.691Z,20.73
2018-12-20T01:47:02.445Z,21.93
2018-12-20T01:49:29.105Z,22.47
2018-12-20T01:51:55.718Z,20.50
2018-12-20T01:54:22.546Z,22.10
2018-12-20T01:56:49.154Z,22.77
2018-12-20T01:59:15.879Z,21.60
2018-12-20T02:01:42.529Z,21.67
2018-12-20T02:04:09.250Z,21.93
2018-12-20T02:06:36.076Z,20.60
2018-12-20T02:09:04.674Z,20.70
2018-12-20T02:11:31.154Z,21.30
2018-12-20T02:13:57.783Z,20.33
2018-12-20T02:16:24.473Z,21.57
2018-12-20T02:18:51.195Z,21.97
2018-12-20T02:21:17.795Z,20.93
2018-12-20T02:23:44.293Z,20.23
2018-12-20T02:26:11.078Z,20.80
2018-12-20T02:28:37.534Z,20.47
2018-12-20T02:31:04.135Z,20.73
2018-12-20T02:33:30.595Z,19.57
2018-12-20T02:35:57.273Z,20.57
2018-12-20T02:38:23.916Z,19.80
2018-12-20T02:40:50.335Z,20.60
2018-12-20T02:43:17.058Z,20.33
2018-12-20T02:45:43.864Z,20.47
2018-12-20T02:48:10.567Z,19.90
2018-12-20T02:50:37.332Z,20.00
2018-12-20T02:53:03.715Z,19.33
2018-12-20T02:55:30.214Z,20.00
2018-12-20T02:57:57.287Z,20.37
2018-12-20T03:00:24.171Z,20.03
2018-12-20T03:02:50.848Z,19.53
2018-12-20T03:05:17.302Z,19.90
2018-12-20T03:07:43.913Z,18.60
2018-12-20T03:10:10.491Z,20.27
2018-12-20T03:12:37.116Z,19.83
2018-12-20T03:15:04.305Z,20.73
2018-12-20T03:17:30.923Z,20.83
2018-12-20T03:19:57.501Z,19.53
2018-12-20T03:22:24.369Z,21.43
2018-12-20T03:24:51.051Z,20.00
2018-12-20T03:27:17.663Z,20.60
2018-12-20T03:29:44.128Z,20.50
2018-12-20T03:32:10.744Z,19.23
2018-12-20T03:34:37.477Z,19.00
2018-12-20T03:37:04.265Z,19.37
2018-12-20T03:39:30.843Z,19.83
2018-12-20T03:41:57.233Z,20.27
2018-12-20T03:44:23.753Z,18.50
2018-12-20T03:46:50.517Z,20.53
2018-12-20T03:49:17.161Z,20.00
2018-12-20T03:51:43.937Z,19.43
2018-12-20T03:54:10.431Z,19.70
2018-12-20T03:56:37.273Z,18.60
2018-12-20T03:59:03.789Z,18.97
2018-12-20T04:01:30.658Z,17.90
2018-12-20T04:03:57.509Z,18.33
2018-12-20T04:06:23.964Z,19.53
2018-12-20T04:08:50.975Z,21.70
2018-12-20T04:11:17.643Z,19.80
2018-12-20T04:13:44.279Z,20.00
2018-12-20T04:16:10.951Z,19.90
2018-12-20T04:18:37.478Z,20.40
2018-12-20T04:21:04.117Z,19.03
2018-12-20T04:23:30.766Z,20.13
2018-12-20T04:25:57.554Z,17.90
2018-12-20T04:28:24.627Z,18.13
2018-12-20T04:30:51.188Z,18.43
2018-12-20T04:33:18.023Z,18.00
2018-12-20T04:35:44.695Z,19.13
2018-12-20T04:38:11.498Z,19.30
2018-12-20T04:40:38.237Z,17.33
2018-12-20T04:43:05.035Z,17.87
2018-12-20T04:45:31.615Z,17.20
2018-12-20T04:47:58.410Z,16.93
2018-12-20T04:50:25.272Z,17.67
2018-12-20T04:52:52.111Z,18.47
2018-12-20T04:55:18.863Z,19.00
2018-12-20T04:57:45.566Z,17.70
2018-12-20T05:00:12.322Z,17.13
2018-12-20T05:02:42.327Z,17.77
2018-12-20T05:05:09.264Z,17.60
2018-12-20T05:07:35.918Z,18.03
2018-12-20T05:10:03.484Z,17.20
2018-12-20T05:12:30.316Z,16.47
2018-12-20T05:14:57.339Z,17.03
2018-12-20T05:17:24.010Z,17.73
2018-12-20T05:19:50.590Z,18.07
2018-12-20T05:22:17.447Z,19.27
2018-12-20T05:24:44.342Z,20.23
2018-12-20T05:27:11.158Z,19.37
2018-12-20T05:29:37.783Z,25.57
2018-12-20T05:32:04.555Z,25.13
2018-12-20T05:34:31.225Z,25.33
2018-12-20T05:36:57.818Z,22.50
2018-12-20T05:39:24.483Z,20.60
2018-12-20T05:41:51.452Z,20.60
2018-12-20T05:44:17.851Z,20.40
2018-12-20T05:46:44.714Z,20.37
2018-12-20T05:49:11.455Z,21.07
2018-12-20T05:51:38.282Z,19.83
2018-12-20T05:54:04.906Z,19.73
2018-12-20T05:56:31.253Z,21.13
2018-12-20T05:58:57.881Z,21.30
2018-12-20T06:01:24.755Z,22.13
2018-12-20T06:03:51.591Z,23.17
2018-12-20T06:06:17.595Z,21.00
2018-12-20T06:08:46.598Z,22.10
2018-12-20T06:11:13.572Z,20.47
2018-12-20T06:13:40.222Z,19.90
2018-12-20T06:16:12.677Z,22.37
2018-12-20T06:18:35.673Z,23.73
2018-12-20T06:21:02.259Z,23.83
2018-12-20T06:23:28.990Z,21.80
2018-12-20T06:25:55.543Z,22.33
2018-12-20T06:28:22.155Z,22.30
2018-12-20T06:30:48.711Z,21.97
2018-12-20T06:33:15.439Z,21.80
2018-12-20T06:35:41.788Z,21.23
2018-12-20T06:38:08.511Z,21.73
2018-12-20T06:40:35.342Z,20.90
2018-12-20T06:43:01.838Z,21.00
2018-12-20T06:45:28.439Z,20.40
2018-12-20T06:47:54.943Z,20.07
2018-12-20T06:50:21.434Z,20.17
2018-12-20T06:52:47.971Z,21.00
2018-12-20T06:55:14.595Z,21.00
2018-12-20T06:57:40.975Z,22.30
2018-12-20T07:00:07.926Z,20.17
2018-12-20T07:02:35.052Z,20.50
2018-12-20T07:05:01.653Z,21.73
2018-12-20T07:07:28.266Z,21.00
2018-12-20T07:09:54.770Z,19.60
2018-12-20T07:12:21.390Z,20.37
2018-12-20T07:14:47.873Z,22.07
2018-12-20T07:17:14.426Z,19.90
2018-12-20T07:19:41.008Z,21.30
2018-12-20T07:22:07.538Z,21.00
2018-12-20T07:24:34.151Z,19.63
2018-12-20T07:27:00.742Z,18.00
2018-12-20T07:29:27.342Z,20.93
2018-12-20T07:31:53.946Z,19.50
2018-12-20T07:34:20.554Z,19.33
2018-12-20T07:36:47.046Z,19.03
2018-12-20T07:39:13.619Z,18.83
2018-12-20T07:41:40.122Z,18.73
2018-12-20T07:44:06.840Z,17.70
2018-12-20T07:46:37.836Z,18.63
2018-12-20T07:49:02.249Z,17.50
2018-12-20T07:51:28.614Z,18.30
2018-12-20T07:53:55.247Z,18.47
2018-12-20T07:56:21.822Z,21.37
2018-12-20T07:58:48.315Z,18.93
2018-12-20T08:01:14.798Z,18.07
2018-12-20T08:03:41.268Z,19.93
2018-12-20T08:06:07.763Z,18.23
2018-12-20T08:08:34.122Z,17.87
2018-12-20T08:11:00.717Z,17.90
2018-12-20T08:13:27.356Z,18.20
2018-12-20T08:15:53.911Z,16.60
2018-12-20T08:18:20.507Z,17.30
2018-12-20T08:20:47.103Z,17.30
2018-12-20T08:23:13.583Z,16.33
2018-12-20T08:25:40.075Z,16.30
2018-12-20T08:28:06.771Z,16.93
2018-12-20T08:30:33.347Z,17.77
2018-12-20T08:32:59.842Z,16.00
2018-12-20T08:35:26.445Z,18.25
2018-12-20T08:37:52.798Z,17.30
2018-12-20T08:40:19.171Z,16.47
2018-12-20T08:42:49.563Z,17.43
2018-12-20T08:45:16.075Z,15.93
2018-12-20T08:47:42.534Z,15.77
2018-12-20T08:50:08.997Z,16.17
2018-12-20T08:52:35.499Z,16.17
2018-12-20T08:55:01.963Z,15.63
2018-12-20T08:57:28.583Z,14.80
2018-12-20T08:59:55.075Z,15.30
2018-12-20T09:02:21.701Z,14.87
2018-12-20T09:04:48.197Z,14.47
2018-12-20T09:07:14.798Z,14.47
2018-12-20T09:09:41.383Z,14.83
2018-12-20T09:12:07.742Z,13.47
2018-12-20T09:14:34.348Z,14.30
2018-12-20T09:17:03.192Z,14.03
2018-12-20T09:19:36.286Z,14.37
2018-12-20T09:22:03.099Z,14.37
2018-12-20T09:24:29.696Z,13.43
2018-12-20T09:26:56.291Z,14.20
2018-12-20T09:29:22.756Z,13.30
2018-12-20T09:31:49.475Z,12.83
2018-12-20T09:34:15.954Z,13.20
2018-12-20T09:36:42.695Z,13.10
2018-12-20T09:39:09.284Z,13.03
2018-12-20T09:41:35.821Z,14.03
2018-12-20T09:44:02.506Z,14.63
2018-12-20T09:46:29.112Z,12.27
2018-12-20T09:48:55.606Z,13.10
2018-12-20T09:51:22.078Z,12.93
2018-12-20T09:53:48.559Z,11.97
2018-12-20T09:56:15.168Z,12.70
2018-12-20T09:58:41.643Z,12.70
2018-12-20T10:01:08.291Z,11.13
2018-12-20T10:03:34.812Z,10.50
2018-12-20T10:06:01.404Z,11.07
2018-12-20T10:08:28.027Z,10.47
2018-12-20T10:10:54.626Z,9.70
2018-12-20T10:13:21.126Z,9.93
2018-12-20T10:15:47.624Z,8.77
2018-12-20T10:18:13.979Z,8.43
2018-12-20T10:20:40.570Z,8.63
2018-12-20T10:23:07.295Z,8.00
2018-12-20T10:25:34.026Z,7.87
2018-12-20T10:28:00.635Z,7.40
2018-12-20T10:30:27.144Z,8.03
2018-12-20T10:32:53.632Z,7.07
2018-12-20T10:35:20.337Z,8.27
2018-12-20T10:37:46.962Z,6.80
2018-12-20T10:40:13.310Z,6.90
2018-12-20T10:42:39.783Z,6.97
2018-12-20T10:45:06.342Z,6.77
2018-12-20T10:47:32.667Z,6.50
2018-12-20T10:49:59.033Z,5.63
2018-12-20T10:52:25.631Z,5.57
2018-12-20T10:54:52.145Z,4.83
2018-12-20T10:57:18.735Z,4.97
2018-12-20T10:59:45.220Z,4.97
2018-12-20T11:02:13.707Z,6.03
2018-12-20T11:04:42.215Z,5.67
2018-12-20T11:07:10.738Z,5.27
2018-12-20T11:09:39.260Z,5.20
2018-12-20T11:12:07.678Z,5.77
2018-12-20T11:14:34.590Z,4.87
2018-12-20T11:17:01.302Z,5.33
2018-12-20T11:19:27.914Z,4.57
2018-12-20T11:21:54.398Z,4.30
2018-12-20T11:24:20.875Z,4.87
2018-12-20T11:26:47.375Z,4.70
2018-12-20T11:29:14.103Z,4.67
2018-12-20T11:31:40.839Z,4.57
2018-12-20T11:34:07.546Z,4.23
2018-12-20T11:36:34.167Z,5.53
2018-12-20T11:39:08.172Z,4.90
2018-12-20T11:41:29.262Z,4.87
2018-12-20T11:43:55.759Z,4.90
2018-12-20T11:46:22.355Z,4.80
2018-12-20T11:48:48.830Z,4.97
2018-12-20T11:51:15.430Z,4.60
2018-12-20T11:53:42.054Z,5.37
2018-12-20T11:56:08.662Z,4.97
2018-12-20T11:58:35.154Z,4.63
2018-12-20T12:01:01.957Z,4.90
2018-12-20T12:03:28.601Z,5.00
2018-12-20T12:05:55.112Z,4.93
2018-12-20T12:08:21.763Z,5.67
2018-12-20T12:10:47.810Z,4.83
2018-12-20T12:13:15.078Z,5.70
2018-12-20T12:15:41.556Z,5.37
2018-12-20T12:18:08.087Z,5.87
2018-12-20T12:20:34.686Z,5.50
2018-12-20T12:23:01.185Z,5.90
2018-12-20T12:25:27.770Z,5.50
2018-12-20T12:27:54.310Z,4.90
2018-12-20T12:30:20.802Z,5.60
2018-12-20T12:32:47.287Z,6.27
2018-12-20T12:35:13.760Z,5.40
2018-12-20T12:37:40.318Z,5.60
2018-12-20T12:40:07.298Z,5.27
2018-12-20T12:42:33.866Z,5.70
2018-12-20T12:45:00.376Z,6.07
2018-12-20T12:47:28.781Z,5.60
2018-12-20T12:49:55.159Z,6.00
2018-12-20T12:52:22.035Z,5.97
2018-12-20T12:54:48.545Z,6.57
2018-12-20T12:57:15.067Z,6.50
2018-12-20T12:59:41.659Z,5.90
2018-12-20T13:02:08.242Z,6.27
2018-12-20T13:04:34.754Z,6.43
2018-12-20T13:07:01.351Z,6.43
2018-12-20T13:09:27.983Z,6.63
2018-12-20T13:11:54.522Z,6.30
2018-12-20T13:14:21.019Z,6.60
2018-12-20T13:16:47.515Z,7.00
2018-12-20T13:19:13.891Z,6.10
2018-12-20T13:21:40.258Z,6.27
2018-12-20T13:24:06.858Z,6.30
2018-12-20T13:26:33.583Z,6.23
2018-12-20T13:29:00.219Z,6.27
2018-12-20T13:31:27.142Z,6.40
2018-12-20T13:33:53.755Z,6.93
2018-12-20T13:36:20.254Z,7.07
2018-12-20T13:38:46.888Z,7.20
2018-12-20T13:41:13.395Z,7.33
2018-12-20T13:43:39.939Z,7.50
2018-12-20T13:46:06.539Z,6.20
2018-12-20T13:48:33.259Z,7.30
2018-12-20T13:50:59.737Z,6.63
2018-12-20T13:53:26.376Z,6.70
2018-12-20T13:55:52.755Z,7.30
2018-12-20T13:58:19.245Z,7.80
2018-12-20T14:00:46.001Z,7.40
2018-12-20T14:03:12.595Z,7.73
2018-12-20T14:05:39.075Z,8.40
2018-12-20T14:08:05.685Z,9.10
2018-12-20T14:10:32.464Z,8.53
2018-12-20T14:12:59.046Z,7.07
2018-12-20T14:15:25.534Z,7.17
2018-12-20T14:17:52.058Z,4.80
2018-12-20T14:20:18.451Z,4.97
2018-12-20T14:22:44.985Z,4.47
2018-12-20T14:25:11.530Z,2.70
2018-12-20T14:27:38.239Z,2.50
2018-12-20T14:30:06.059Z,2.30
2018-12-20T14:32:32.749Z,2.13
2018-12-20T14:34:59.350Z,2.00
2018-12-20T14:37:25.720Z,1.97
2018-12-20T14:39:52.221Z,2.40
2018-12-20T14:42:18.625Z,2.43
2018-12-20T14:44:45.209Z,2.47
2018-12-20T14:47:11.807Z,3.33
2018-12-20T14:49:38.192Z,3.20
2018-12-20T14:52:04.774Z,3.20
2018-12-20T14:54:31.263Z,2.60
2018-12-20T14:56:57.795Z,2.10
2018-12-20T14:59:24.391Z,2.30
2018-12-20T15:01:50.783Z,2.50
2018-12-20T15:04:17.154Z,1.90
2018-12-20T15:06:43.639Z,2.50
2018-12-20T15:09:10.237Z,1.90
2018-12-20T15:11:36.949Z,1.90
2018-12-20T15:14:03.425Z,2.10
2018-12-20T15:16:29.919Z,2.00
2018-12-20T15:18:56.511Z,1.90
2018-12-20T15:21:23.246Z,2.20
2018-12-20T15:23:49.907Z,2.30
2018-12-20T15:26:16.567Z,2.20
2018-12-20T15:28:42.948Z,2.10
2018-12-20T15:31:09.439Z,2.70
2018-12-20T15:33:36.099Z,2.33
2018-12-20T15:36:02.617Z,2.43
2018-12-20T15:38:29.002Z,2.30
2018-12-20T15:40:55.712Z,2.40
2018-12-20T15:43:22.101Z,2.40
2018-12-20T15:45:48.716Z,3.00
2018-12-20T15:48:15.608Z,2.30
2018-12-20T15:50:42.215Z,2.67
2018-12-20T15:53:08.832Z,2.93
2018-12-20T15:55:35.322Z,3.37
2018-12-20T15:58:01.698Z,4.07
2018-12-20T16:00:28.284Z,4.30
2018-12-20T16:02:54.890Z,4.23
2018-12-20T16:05:21.500Z,4.60
2018-12-20T16:07:47.991Z,5.33
2018-12-20T16:10:14.470Z,4.77
2018-12-20T16:12:41.073Z,5.63
2018-12-20T16:15:07.570Z,5.87
2018-12-20T16:17:34.854Z,5.83
2018-12-20T16:20:01.456Z,6.27
2018-12-20T16:22:28.074Z,6.60
2018-12-20T16:24:54.680Z,6.67
2018-12-20T16:27:21.301Z,5.70
2018-12-20T16:29:48.030Z,5.07
2018-12-20T16:32:14.521Z,4.60
2018-12-20T16:34:40.908Z,4.53
2018-12-20T16:37:07.289Z,4.30
2018-12-20T16:39:33.910Z,4.17
2018-12-20T16:42:00.511Z,4.57
2018-12-20T16:44:27.134Z,5.40
2018-12-20T16:46:53.763Z,5.63
2018-12-20T16:49:20.139Z,5.33
2018-12-20T16:51:46.547Z,5.73
2018-12-20T16:54:13.174Z,5.17
2018-12-20T16:56:39.895Z,5.57
2018-12-20T16:59:06.406Z,9.67
2018-12-20T17:01:32.882Z,10.43
2018-12-20T17:03:59.263Z,8.70
2018-12-20T17:06:26.026Z,13.10
2018-12-20T17:08:52.912Z,12.47
2018-12-20T17:11:20.149Z,12.97
2018-12-20T17:13:46.629Z,13.60
2018-12-20T17:16:13.340Z,18.67
2018-12-20T17:18:39.838Z,10.63
2018-12-20T17:21:06.219Z,7.20
2018-12-20T17:23:35.790Z,9.50
2018-12-20T17:26:01.422Z,8.50
2018-12-20T17:28:28.126Z,7.27
2018-12-20T17:30:54.720Z,8.20
2018-12-20T17:33:21.306Z,8.40
2018-12-20T17:35:47.790Z,8.67
2018-12-20T17:38:14.374Z,8.67
2018-12-20T17:40:41.078Z,8.57
2018-12-20T17:43:07.670Z,9.27
2018-12-20T17:45:34.394Z,8.80
2018-12-20T17:48:00.970Z,9.87
2018-12-20T17:50:27.558Z,8.67
2018-12-20T17:52:57.354Z,8.67
2018-12-20T17:55:23.947Z,8.77
2018-12-20T17:57:50.630Z,10.07
2018-12-20T18:00:17.055Z,12.80
2018-12-20T18:02:43.746Z,11.83
2018-12-20T18:05:10.343Z,10.83
2018-12-20T18:07:36.840Z,10.87
2018-12-20T18:10:03.211Z,11.27
2018-12-20T18:12:29.595Z,20.83
2018-12-20T18:14:56.186Z,13.83
2018-12-20T18:17:22.915Z,11.03
2018-12-20T18:19:49.415Z,12.57
2018-12-20T18:22:15.896Z,11.57
2018-12-20T18:24:42.270Z,13.13
2018-12-20T18:27:08.863Z,9.63
2018-12-20T18:29:35.459Z,9.87
2018-12-20T18:32:01.998Z,9.00
2018-12-20T18:34:28.484Z,9.30
2018-12-20T18:36:54.959Z,9.80
2018-12-20T18:39:21.542Z,9.43
2018-12-20T18:41:47.938Z,9.07
2018-12-20T18:44:14.639Z,7.90
2018-12-20T18:46:41.241Z,8.33
2018-12-20T18:49:07.743Z,7.93
2018-12-20T18:51:34.366Z,8.80
2018-12-20T18:54:01.585Z,7.60
2018-12-20T18:56:28.181Z,5.97
2018-12-20T18:58:54.941Z,5.83
2018-12-20T19:01:21.559Z,5.80
2018-12-20T19:03:47.938Z,5.40
2018-12-20T19:06:14.651Z,5.40
2018-12-20T19:08:41.002Z,6.43
2018-12-20T19:11:07.594Z,5.00
2018-12-20T19:13:34.070Z,4.97
2018-12-20T19:16:00.651Z,4.43
2018-12-20T19:18:27.368Z,5.20
2018-12-20T19:20:53.862Z,5.30
2018-12-20T19:23:20.479Z,4.47
2018-12-20T19:25:46.941Z,4.73
2018-12-20T19:28:13.430Z,6.10
2018-12-20T19:30:39.898Z,5.83
2018-12-20T19:33:06.587Z,6.00
2018-12-20T19:35:33.117Z,5.77
2018-12-20T19:37:59.544Z,4.70
2018-12-20T19:40:26.030Z,4.50
2018-12-20T19:42:52.522Z,3.73
2018-12-20T19:45:19.019Z,3.93
2018-12-20T19:47:45.507Z,4.50
2018-12-20T19:50:12.299Z,4.70
2018-12-20T19:52:39.212Z,4.47
2018-12-20T19:55:06.145Z,4.73
2018-12-20T19:57:32.935Z,4.00
2018-12-20T19:59:59.770Z,5.30
2018-12-20T20:02:26.665Z,5.20
2018-12-20T20:04:54.483Z,5.40
2018-12-20T20:07:21.186Z,4.30
2018-12-20T20:09:47.876Z,5.80
2018-12-20T20:12:14.524Z,5.27
2018-12-20T20:14:41.334Z,6.87
2018-12-20T20:17:07.939Z,6.07
2018-12-20T20:19:34.536Z,5.87
2018-12-20T20:22:01.224Z,5.83
2018-12-20T20:24:27.922Z,5.67
2018-12-20T20:26:54.548Z,5.77
2018-12-20T20:29:21.170Z,6.20
2018-12-20T20:31:47.655Z,5.33
2018-12-20T20:34:14.148Z,5.50
2018-12-20T20:36:40.749Z,4.57
2018-12-20T20:39:07.384Z,5.40
2018-12-20T20:41:35.183Z,5.10
2018-12-20T20:44:01.805Z,4.67
2018-12-20T20:46:28.415Z,4.90
2018-12-20T20:48:54.901Z,4.57
2018-12-20T20:51:21.627Z,4.37
2018-12-20T20:53:48.004Z,4.20
2018-12-20T20:56:14.604Z,3.70
2018-12-20T20:58:41.191Z,4.13
2018-12-20T21:01:07.795Z,4.60
2018-12-20T21:03:34.419Z,4.72
2018-12-20T21:06:01.027Z,4.00
2018-12-20T21:08:27.406Z,3.63
2018-12-20T21:10:53.880Z,3.43
2018-12-20T21:13:20.478Z,3.37
2018-12-20T21:15:47.187Z,3.33
2018-12-20T21:18:13.766Z,3.10
2018-12-20T21:20:40.146Z,3.10
2018-12-20T21:23:06.643Z,3.30
2018-12-20T21:25:33.340Z,2.93
2018-12-20T21:27:59.734Z,2.97
2018-12-20T21:30:26.281Z,3.17
2018-12-20T21:32:52.881Z,3.37
2018-12-20T21:35:19.475Z,3.00
2018-12-20T21:37:49.028Z,2.87
2018-12-20T21:40:15.411Z,2.63
2018-12-20T21:42:42.131Z,2.80
2018-12-20T21:45:08.743Z,2.93
2018-12-20T21:47:35.412Z,3.10
2018-12-20T21:50:01.984Z,2.60
2018-12-20T21:52:28.702Z,3.10
2018-12-20T21:54:55.206Z,3.33
2018-12-20T21:57:21.795Z,3.07
2018-12-20T21:59:48.489Z,2.63
2018-12-20T22:02:15.134Z,2.10
2018-12-20T22:04:41.826Z,2.00
2018-12-20T22:07:08.524Z,2.23
2018-12-20T22:09:34.921Z,3.50
2018-12-20T22:12:01.603Z,3.20
2018-12-20T22:14:28.214Z,3.13
2018-12-20T22:16:54.608Z,3.70
2018-12-20T22:19:21.110Z,2.87
2018-12-20T22:21:47.713Z,3.17
2018-12-20T22:24:14.326Z,2.30
2018-12-20T22:26:40.918Z,3.20
2018-12-20T22:29:07.294Z,2.17
2018-12-20T22:31:33.888Z,2.77
2018-12-20T22:34:00.487Z,3.00
2018-12-20T22:36:26.861Z,2.63
2018-12-20T22:38:53.362Z,1.97
2018-12-20T22:41:19.736Z,2.10
2018-12-20T22:43:46.582Z,1.90
2018-12-20T22:46:12.947Z,2.20
2018-12-20T22:48:39.323Z,2.40
2018-12-20T22:51:05.703Z,2.20
2018-12-20T22:53:32.087Z,2.60
2018-12-20T22:55:58.452Z,2.30
2018-12-20T22:58:24.822Z,2.30
2018-12-20T23:00:53.350Z,3.20
2018-12-20T23:03:19.926Z,3.03
2018-12-20T23:05:46.635Z,2.60
2018-12-20T23:08:13.314Z,2.40
2018-12-20T23:10:39.879Z,2.90
2018-12-20T23:13:06.460Z,2.70
2018-12-20T23:15:32.959Z,2.40
2018-12-20T23:17:59.434Z,2.40
2018-12-20T23:20:26.047Z,2.30
2018-12-20T23:22:52.411Z,2.50
2018-12-20T23:25:19.004Z,2.73
2018-12-20T23:27:45.481Z,2.47
2018-12-20T23:30:11.959Z,2.77
2018-12-20T23:32:38.515Z,2.70
2018-12-20T23:35:05.112Z,3.50
2018-12-20T23:37:31.696Z,2.73
2018-12-20T23:39:58.319Z,2.70
2018-12-20T23:42:24.802Z,2.90
2018-12-20T23:44:51.478Z,3.13
2018-12-20T23:47:17.853Z,2.80
2018-12-20T23:49:44.415Z,3.30
2018-12-20T23:52:11.122Z,2.97
2018-12-20T23:54:37.726Z,2.87
2018-12-20T23:57:04.242Z,3.00
2018-12-20T23:59:30.615Z,3.33
